sensor_id;sensor_type;location;lat;lon;timestamp;pressure;altitude;pressure_sealevel;temperature;humidity
74370;BME280;62805;44.644;10.942;2023-04-06T00:01:16;101515.69;;;4.16;48.66
74370;BME280;62805;44.644;10.942;2023-04-06T00:03:42;101507.16;;;4.04;49.08
74370;BME280;62805;44.644;10.942;2023-04-06T00:06:07;101513.59;;;4.05;49.13
74370;BME280;62805;44.644;10.942;2023-04-06T00:08:32;101513.34;;;4.13;48.92
74370;BME280;62805;44.644;10.942;2023-04-06T00:10:58;101513.59;;;4.05;49.52
74370;BME280;62805;44.644;10.942;2023-04-06T00:13:23;101511.19;;;4.15;49.17
74370;BME280;62805;44.644;10.942;2023-04-06T00:15:48;101507.38;;;4.09;49.07
74370;BME280;62805;44.644;10.942;2023-04-06T00:18:14;101515.72;;;4.03;49.04
74370;BME280;62805;44.644;10.942;2023-04-06T00:20:40;101520.88;;;4.06;49.00
74370;BME280;62805;44.644;10.942;2023-04-06T00:23:05;101526.44;;;4.06;48.61
74370;BME280;62805;44.644;10.942;2023-04-06T00:25:30;101514.03;;;4.02;49.10
74370;BME280;62805;44.644;10.942;2023-04-06T00:27:56;101513.59;;;4.05;49.50
74370;BME280;62805;44.644;10.942;2023-04-06T00:30:21;101511.63;;;4.12;49.28
74370;BME280;62805;44.644;10.942;2023-04-06T00:32:47;101507.16;;;4.11;49.81
74370;BME280;62805;44.644;10.942;2023-04-06T00:35:12;101511.19;;;4.15;49.57
74370;BME280;62805;44.644;10.942;2023-04-06T00:37:38;101519.13;;;4.18;49.39
74370;BME280;62805;44.644;10.942;2023-04-06T00:40:03;101498.22;;;3.96;49.55
74370;BME280;62805;44.644;10.942;2023-04-06T00:42:29;101513.63;;;3.98;49.32
74370;BME280;62805;44.644;10.942;2023-04-06T00:44:56;101521.75;;;4.00;49.66
74370;BME280;62805;44.644;10.942;2023-04-06T00:47:23;101514.91;;;3.96;49.96
74370;BME280;62805;44.644;10.942;2023-04-06T00:49:50;101527.31;;;3.87;49.84
74370;BME280;62805;44.644;10.942;2023-04-06T00:52:15;101527.78;;;3.84;49.95
74370;BME280;62805;44.644;10.942;2023-04-06T00:54:41;101523.88;;;3.98;50.13
74370;BME280;62805;44.644;10.942;2023-04-06T00:57:06;101520.06;;;3.99;50.13
74370;BME280;62805;44.644;10.942;2023-04-06T00:59:32;101512.31;;;4.01;50.26
74370;BME280;62805;44.644;10.942;2023-04-06T01:01:57;101516.81;;;4.02;50.50
74370;BME280;62805;44.644;10.942;2023-04-06T01:04:23;101511.06;;;3.97;50.75
74370;BME280;62805;44.644;10.942;2023-04-06T01:06:49;101513.22;;;3.95;51.02
74370;BME280;62805;44.644;10.942;2023-04-06T01:09:16;101508.50;;;3.95;51.02
74370;BME280;62805;44.644;10.942;2023-04-06T01:11:41;101515.31;;;3.99;50.88
74370;BME280;62805;44.644;10.942;2023-04-06T01:14:07;101511.91;;;3.97;50.67
74370;BME280;62805;44.644;10.942;2023-04-06T01:16:33;101500.41;;;3.81;51.23
74370;BME280;62805;44.644;10.942;2023-04-06T01:18:58;101500.22;;;3.76;51.30
74370;BME280;62805;44.644;10.942;2023-04-06T01:21:24;101495.72;;;3.75;51.69
74370;BME280;62805;44.644;10.942;2023-04-06T01:23:50;101494.41;;;3.84;51.45
74370;BME280;62805;44.644;10.942;2023-04-06T01:26:15;101457.03;;;3.67;51.17
74370;BME280;62805;44.644;10.942;2023-04-06T01:28:41;101486.31;;;3.76;51.38
74370;BME280;62805;44.644;10.942;2023-04-06T01:31:08;101491.44;;;3.79;51.45
74370;BME280;62805;44.644;10.942;2023-04-06T01:33:33;101486.72;;;3.73;51.65
74370;BME280;62805;44.644;10.942;2023-04-06T01:35:59;101492.28;;;3.73;51.90
74370;BME280;62805;44.644;10.942;2023-04-06T01:38:25;101492.34;;;3.60;52.49
74370;BME280;62805;44.644;10.942;2023-04-06T01:40:52;101498.28;;;3.70;52.71
74370;BME280;62805;44.644;10.942;2023-04-06T01:43:17;101492.28;;;3.73;52.41
74370;BME280;62805;44.644;10.942;2023-04-06T01:45:42;101498.50;;;3.81;51.86
74370;BME280;62805;44.644;10.942;2023-04-06T01:48:08;101494.03;;;3.74;51.93
74370;BME280;62805;44.644;10.942;2023-04-06T01:50:33;101468.78;;;3.62;51.94
74370;BME280;62805;44.644;10.942;2023-04-06T01:52:59;101492.72;;;3.70;51.70
74370;BME280;62805;44.644;10.942;2023-04-06T01:55:24;101489.38;;;3.55;52.43
74370;BME280;62805;44.644;10.942;2023-04-06T01:57:49;101487.22;;;3.57;52.36
74370;BME280;62805;44.644;10.942;2023-04-06T02:00:15;101465.00;;;3.43;52.13
74370;BME280;62805;44.644;10.942;2023-04-06T02:02:41;101468.41;;;3.46;51.30
74370;BME280;62805;44.644;10.942;2023-04-06T02:05:07;101475.69;;;3.47;51.72
74370;BME280;62805;44.644;10.942;2023-04-06T02:07:32;101482.97;;;3.48;51.30
74370;BME280;62805;44.644;10.942;2023-04-06T02:09:58;101482.13;;;3.40;51.30
74370;BME280;62805;44.644;10.942;2023-04-06T02:12:23;101478.25;;;3.41;52.08
74370;BME280;62805;44.644;10.942;2023-04-06T02:14:49;101471.84;;;3.34;53.03
74370;BME280;62805;44.644;10.942;2023-04-06T02:17:14;101479.78;;;3.37;53.48
74370;BME280;62805;44.644;10.942;2023-04-06T02:19:40;101474.44;;;3.23;53.95
74370;BME280;62805;44.644;10.942;2023-04-06T02:22:05;101463.75;;;3.13;54.32
74370;BME280;62805;44.644;10.942;2023-04-06T02:24:31;101472.28;;;3.18;54.57
74370;BME280;62805;44.644;10.942;2023-04-06T02:26:56;101472.09;;;3.13;55.07
74370;BME280;62805;44.644;10.942;2023-04-06T02:29:21;101474.00;;;3.06;55.23
74370;BME280;62805;44.644;10.942;2023-04-06T02:31:47;101479.59;;;2.93;55.57
74370;BME280;62805;44.644;10.942;2023-04-06T02:34:12;101470.81;;;2.96;55.15
74370;BME280;62805;44.644;10.942;2023-04-06T02:36:46;101474.88;;;3.07;54.83
74370;BME280;62805;44.644;10.942;2023-04-06T02:39:11;101470.59;;;3.17;54.29
74370;BME280;62805;44.644;10.942;2023-04-06T02:41:37;101475.06;;;3.18;54.62
74370;BME280;62805;44.644;10.942;2023-04-06T02:44:03;101474.88;;;3.13;54.39
74370;BME280;62805;44.644;10.942;2023-04-06T02:46:29;101469.31;;;3.13;54.38
74370;BME280;62805;44.644;10.942;2023-04-06T02:48:54;101479.56;;;3.06;54.69
74370;BME280;62805;44.644;10.942;2023-04-06T02:51:20;101475.31;;;3.04;54.82
74370;BME280;62805;44.644;10.942;2023-04-06T02:53:46;101473.19;;;3.06;54.49
74370;BME280;62805;44.644;10.942;2023-04-06T02:56:11;101466.56;;;3.00;54.19
74370;BME280;62805;44.644;10.942;2023-04-06T02:58:37;101471.47;;;3.05;54.01
74370;BME280;62805;44.644;10.942;2023-04-06T03:01:03;101482.78;;;3.23;53.46
74370;BME280;62805;44.644;10.942;2023-04-06T03:03:28;101458.66;;;3.04;52.90
74370;BME280;62805;44.644;10.942;2023-04-06T03:05:55;101445.84;;;2.83;53.67
74370;BME280;62805;44.644;10.942;2023-04-06T03:08:23;101465.06;;;3.04;53.60
74370;BME280;62805;44.644;10.942;2023-04-06T03:10:49;101494.09;;;3.02;53.85
74370;BME280;62805;44.644;10.942;2023-04-06T03:13:15;101489.84;;;3.12;52.98
74370;BME280;62805;44.644;10.942;2023-04-06T03:15:40;101488.97;;;3.18;52.02
74370;BME280;62805;44.644;10.942;2023-04-06T03:18:05;101491.75;;;3.18;52.76
74370;BME280;62805;44.644;10.942;2023-04-06T03:20:31;101463.34;;;3.03;52.81
74370;BME280;62805;44.644;10.942;2023-04-06T03:22:56;101485.34;;;3.18;52.73
74370;BME280;62805;44.644;10.942;2023-04-06T03:25:22;101472.09;;;3.07;51.08
74370;BME280;62805;44.644;10.942;2023-04-06T03:27:47;101503.28;;;3.09;51.60
74370;BME280;62805;44.644;10.942;2023-04-06T03:30:12;101500.72;;;3.07;51.84
74370;BME280;62805;44.644;10.942;2023-04-06T03:32:38;101471.03;;;2.95;50.94
74370;BME280;62805;44.644;10.942;2023-04-06T03:35:03;101497.53;;;2.97;51.38
74370;BME280;62805;44.644;10.942;2023-04-06T03:37:29;101502.22;;;2.97;51.47
74370;BME280;62805;44.644;10.942;2023-04-06T03:39:54;101522.31;;;2.99;52.05
74370;BME280;62805;44.644;10.942;2023-04-06T03:42:20;101486.41;;;2.84;51.85
74370;BME280;62805;44.644;10.942;2023-04-06T03:44:45;101504.75;;;2.85;52.12
74370;BME280;62805;44.644;10.942;2023-04-06T03:47:10;101512.03;;;2.86;52.02
74370;BME280;62805;44.644;10.942;2023-04-06T03:49:36;101510.31;;;2.79;52.20
74370;BME280;62805;44.644;10.942;2023-04-06T03:52:01;101516.09;;;2.84;52.29
74370;BME280;62805;44.644;10.942;2023-04-06T03:54:26;101516.28;;;2.89;52.96
74370;BME280;62805;44.644;10.942;2023-04-06T03:56:52;101507.75;;;2.84;53.01
74370;BME280;62805;44.644;10.942;2023-04-06T03:59:17;101490.69;;;2.87;52.74
74370;BME280;62805;44.644;10.942;2023-04-06T04:01:43;101512.03;;;2.99;52.97
74370;BME280;62805;44.644;10.942;2023-04-06T04:04:08;101518.44;;;3.06;53.23
74370;BME280;62805;44.644;10.942;2023-04-06T04:06:33;101514.19;;;2.97;53.39
74370;BME280;62805;44.644;10.942;2023-04-06T04:09:01;101526.78;;;2.87;53.15
74370;BME280;62805;44.644;10.942;2023-04-06T04:11:26;101523.56;;;2.83;53.31
74370;BME280;62805;44.644;10.942;2023-04-06T04:13:51;101498.78;;;2.75;54.01
74370;BME280;62805;44.644;10.942;2023-04-06T04:16:17;101491.94;;;2.65;54.50
74370;BME280;62805;44.644;10.942;2023-04-06T04:18:42;101514.59;;;2.81;54.33
74370;BME280;62805;44.644;10.942;2023-04-06T04:21:08;101513.50;;;2.69;53.72
74370;BME280;62805;44.644;10.942;2023-04-06T04:23:34;101521.41;;;2.72;53.85
74370;BME280;62805;44.644;10.942;2023-04-06T04:25:59;101512.88;;;2.67;54.82
74370;BME280;62805;44.644;10.942;2023-04-06T04:28:25;101513.31;;;2.84;55.57
74370;BME280;62805;44.644;10.942;2023-04-06T04:30:50;101502.66;;;3.00;54.38
74370;BME280;62805;44.644;10.942;2023-04-06T04:33:15;101506.06;;;3.02;53.89
74370;BME280;62805;44.644;10.942;2023-04-06T04:35:41;101490.69;;;3.06;54.94
74370;BME280;62805;44.644;10.942;2023-04-06T04:38:06;101511.63;;;3.09;55.69
74370;BME280;62805;44.644;10.942;2023-04-06T04:40:31;101504.38;;;3.14;56.07
74370;BME280;62805;44.644;10.942;2023-04-06T04:42:57;101508.19;;;3.13;55.61
74370;BME280;62805;44.644;10.942;2023-04-06T04:45:22;101492.78;;;2.78;53.94
74370;BME280;62805;44.644;10.942;2023-04-06T04:47:47;101494.09;;;2.89;54.17
74370;BME280;62805;44.644;10.942;2023-04-06T04:50:13;101504.09;;;2.70;53.85
74370;BME280;62805;44.644;10.942;2023-04-06T04:52:38;101512.69;;;3.14;54.06
74370;BME280;62805;44.644;10.942;2023-04-06T04:55:06;101511.19;;;3.05;53.84
74370;BME280;62805;44.644;10.942;2023-04-06T04:57:32;101503.50;;;2.94;52.81
74370;BME280;62805;44.644;10.942;2023-04-06T04:59:57;101515.06;;;3.04;53.44
74370;BME280;62805;44.644;10.942;2023-04-06T05:02:23;101516.09;;;3.03;52.71
74370;BME280;62805;44.644;10.942;2023-04-06T05:04:48;101509.03;;;2.94;52.39
74370;BME280;62805;44.644;10.942;2023-04-06T05:07:13;101519.94;;;2.89;54.28
74370;BME280;62805;44.644;10.942;2023-04-06T05:09:40;101521.88;;;3.08;53.84
74370;BME280;62805;44.644;10.942;2023-04-06T05:12:06;101508.19;;;2.87;53.96
74370;BME280;62805;44.644;10.942;2023-04-06T05:14:31;101515.03;;;2.85;54.68
74370;BME280;62805;44.644;10.942;2023-04-06T05:16:57;101524.66;;;2.95;54.92
74370;BME280;62805;44.644;10.942;2023-04-06T05:19:22;101517.59;;;2.93;53.71
74370;BME280;62805;44.644;10.942;2023-04-06T05:21:48;101516.72;;;3.18;52.81
74370;BME280;62805;44.644;10.942;2023-04-06T05:24:13;101510.75;;;3.08;52.73
74370;BME280;62805;44.644;10.942;2023-04-06T05:26:39;101521.84;;;3.15;53.01
74370;BME280;62805;44.644;10.942;2023-04-06T05:29:04;101518.47;;;3.19;54.24
74370;BME280;62805;44.644;10.942;2023-04-06T05:31:30;101512.06;;;3.12;52.03
74370;BME280;62805;44.644;10.942;2023-04-06T05:33:56;101497.09;;;3.26;52.60
74370;BME280;62805;44.644;10.942;2023-04-06T05:36:22;101514.63;;;3.33;51.63
74370;BME280;62805;44.644;10.942;2023-04-06T05:38:47;101511.41;;;3.36;51.45
74370;BME280;62805;44.644;10.942;2023-04-06T05:41:12;101516.75;;;3.45;51.21
74370;BME280;62805;44.644;10.942;2023-04-06T05:43:38;101524.00;;;3.59;51.22
74370;BME280;62805;44.644;10.942;2023-04-06T05:46:03;101525.47;;;3.61;50.90
74370;BME280;62805;44.644;10.942;2023-04-06T05:48:29;101531.69;;;3.57;50.58
74370;BME280;62805;44.644;10.942;2023-04-06T05:50:54;101531.66;;;3.70;50.47
74370;BME280;62805;44.644;10.942;2023-04-06T05:53:20;101535.94;;;3.66;48.09
74370;BME280;62805;44.644;10.942;2023-04-06T05:55:46;101526.56;;;3.27;49.09
74370;BME280;62805;44.644;10.942;2023-04-06T05:58:12;101524.66;;;3.41;48.68
74370;BME280;62805;44.644;10.942;2023-04-06T06:00:37;101546.66;;;3.56;47.98
74370;BME280;62805;44.644;10.942;2023-04-06T06:03:03;101547.03;;;3.66;47.90
74370;BME280;62805;44.644;10.942;2023-04-06T06:05:34;101545.78;;;3.62;48.10
74370;BME280;62805;44.644;10.942;2023-04-06T06:07:59;101548.34;;;3.70;48.64
74370;BME280;62805;44.644;10.942;2023-04-06T06:10:27;101548.13;;;3.78;48.02
74370;BME280;62805;44.644;10.942;2023-04-06T06:12:53;101553.88;;;3.83;48.22
74370;BME280;62805;44.644;10.942;2023-04-06T06:15:18;101554.72;;;3.83;48.19
74370;BME280;62805;44.644;10.942;2023-04-06T06:17:44;101555.13;;;4.00;48.70
74370;BME280;62805;44.644;10.942;2023-04-06T06:20:09;101549.13;;;3.96;48.24
74370;BME280;62805;44.644;10.942;2023-04-06T06:22:35;101558.25;;;4.16;48.17
74370;BME280;62805;44.644;10.942;2023-04-06T06:25:00;101560.41;;;4.21;48.13
74370;BME280;62805;44.644;10.942;2023-04-06T06:27:26;101517.47;;;4.04;48.00
74370;BME280;62805;44.644;10.942;2023-04-06T06:29:52;101553.75;;;4.28;47.97
74370;BME280;62805;44.644;10.942;2023-04-06T06:32:17;101554.03;;;4.51;47.85
74370;BME280;62805;44.644;10.942;2023-04-06T06:34:43;101560.44;;;4.65;47.96
74370;BME280;62805;44.644;10.942;2023-04-06T06:37:08;101556.50;;;4.79;47.81
74370;BME280;62805;44.644;10.942;2023-04-06T06:39:34;101556.00;;;4.89;47.27
74370;BME280;62805;44.644;10.942;2023-04-06T06:41:59;101550.94;;;4.79;47.35
74370;BME280;62805;44.644;10.942;2023-04-06T06:44:28;101551.50;;;4.88;47.03
74370;BME280;62805;44.644;10.942;2023-04-06T06:46:53;101554.13;;;4.76;47.82
74370;BME280;62805;44.644;10.942;2023-04-06T06:49:19;101557.72;;;4.90;48.42
74370;BME280;62805;44.644;10.942;2023-04-06T06:51:45;101555.94;;;4.95;48.88
74370;BME280;62805;44.644;10.942;2023-04-06T06:54:11;101555.91;;;5.02;48.12
74370;BME280;62805;44.644;10.942;2023-04-06T06:56:37;101542.66;;;4.97;48.35
74370;BME280;62805;44.644;10.942;2023-04-06T06:59:03;101566.47;;;5.24;47.48
74370;BME280;62805;44.644;10.942;2023-04-06T07:01:34;101564.97;;;5.22;48.29
74370;BME280;62805;44.644;10.942;2023-04-06T07:04:00;101563.84;;;5.29;48.73
74370;BME280;62805;44.644;10.942;2023-04-06T07:06:25;101574.38;;;5.27;48.72
74370;BME280;62805;44.644;10.942;2023-04-06T07:08:51;101577.06;;;5.40;49.26
74370;BME280;62805;44.644;10.942;2023-04-06T07:11:16;101575.50;;;5.44;49.14
74370;BME280;62805;44.644;10.942;2023-04-06T07:13:42;101557.97;;;5.13;48.60
74370;BME280;62805;44.644;10.942;2023-04-06T07:16:08;101577.63;;;5.24;48.02
74370;BME280;62805;44.644;10.942;2023-04-06T07:18:33;101578.59;;;5.36;49.38
74370;BME280;62805;44.644;10.942;2023-04-06T07:20:58;101582.66;;;5.40;49.52
74370;BME280;62805;44.644;10.942;2023-04-06T07:23:24;101575.28;;;5.46;50.30
74370;BME280;62805;44.644;10.942;2023-04-06T07:25:49;101567.31;;;5.49;50.88
74370;BME280;62805;44.644;10.942;2023-04-06T07:28:17;101573.41;;;5.64;48.83
74370;BME280;62805;44.644;10.942;2023-04-06T07:30:43;101568.91;;;5.63;47.56
74370;BME280;62805;44.644;10.942;2023-04-06T07:33:08;101570.50;;;5.78;47.58
74370;BME280;62805;44.644;10.942;2023-04-06T07:35:33;101570.69;;;5.83;47.24
74370;BME280;62805;44.644;10.942;2023-04-06T07:38:00;101567.03;;;5.82;47.65
74370;BME280;62805;44.644;10.942;2023-04-06T07:40:25;101568.63;;;5.96;46.86
74370;BME280;62805;44.644;10.942;2023-04-06T07:42:52;101560.97;;;6.10;45.16
74370;BME280;62805;44.644;10.942;2023-04-06T07:45:17;101563.53;;;6.11;45.44
74370;BME280;62805;44.644;10.942;2023-04-06T07:47:43;101579.34;;;6.17;44.63
74370;BME280;62805;44.644;10.942;2023-04-06T07:50:09;101568.09;;;6.24;44.35
74370;BME280;62805;44.644;10.942;2023-04-06T07:52:35;101583.28;;;6.46;44.54
74370;BME280;62805;44.644;10.942;2023-04-06T07:55:00;101580.66;;;6.51;44.38
74370;BME280;62805;44.644;10.942;2023-04-06T07:57:25;101584.44;;;6.56;44.80
74370;BME280;62805;44.644;10.942;2023-04-06T07:59:51;101582.19;;;6.65;44.76
74370;BME280;62805;44.644;10.942;2023-04-06T08:02:16;101582.88;;;6.78;44.68
74370;BME280;62805;44.644;10.942;2023-04-06T08:04:42;101578.44;;;6.89;45.03
74370;BME280;62805;44.644;10.942;2023-04-06T08:07:08;101587.47;;;7.03;42.17
74370;BME280;62805;44.644;10.942;2023-04-06T08:09:33;101581.47;;;7.17;41.86
74370;BME280;62805;44.644;10.942;2023-04-06T08:11:59;101576.72;;;7.18;42.80
74370;BME280;62805;44.644;10.942;2023-04-06T08:14:24;101573.47;;;7.32;42.44
74370;BME280;62805;44.644;10.942;2023-04-06T08:16:50;101564.59;;;7.35;40.13
74370;BME280;62805;44.644;10.942;2023-04-06T08:19:15;101573.03;;;7.47;39.68
74370;BME280;62805;44.644;10.942;2023-04-06T08:21:42;101570.75;;;7.55;39.96
74370;BME280;62805;44.644;10.942;2023-04-06T08:24:08;101566.00;;;7.67;37.82
74370;BME280;62805;44.644;10.942;2023-04-06T08:26:33;101566.63;;;7.69;36.47
74370;BME280;62805;44.644;10.942;2023-04-06T08:28:59;101563.09;;;7.62;36.48
74370;BME280;62805;44.644;10.942;2023-04-06T08:31:25;101569.13;;;7.59;36.20
74370;BME280;62805;44.644;10.942;2023-04-06T08:33:51;101568.31;;;7.70;36.57
74370;BME280;62805;44.644;10.942;2023-04-06T08:36:16;101565.03;;;7.73;37.12
74370;BME280;62805;44.644;10.942;2023-04-06T08:38:45;101563.44;;;7.89;37.02
74370;BME280;62805;44.644;10.942;2023-04-06T08:41:12;101556.53;;;7.91;37.26
74370;BME280;62805;44.644;10.942;2023-04-06T08:43:42;101574.03;;;7.99;36.74
74370;BME280;62805;44.644;10.942;2023-04-06T08:46:10;101569.91;;;8.13;37.18
74370;BME280;62805;44.644;10.942;2023-04-06T08:48:37;101569.91;;;8.36;36.59
74370;BME280;62805;44.644;10.942;2023-04-06T08:51:03;101568.06;;;8.41;37.42
74370;BME280;62805;44.644;10.942;2023-04-06T08:53:29;101566.34;;;8.40;37.31
74370;BME280;62805;44.644;10.942;2023-04-06T08:55:56;101552.34;;;8.52;37.71
74370;BME280;62805;44.644;10.942;2023-04-06T08:58:23;101565.81;;;8.66;36.49
74370;BME280;62805;44.644;10.942;2023-04-06T09:00:49;101552.25;;;8.75;36.50
74370;BME280;62805;44.644;10.942;2023-04-06T09:03:16;101566.09;;;8.93;36.75
74370;BME280;62805;44.644;10.942;2023-04-06T09:05:42;101549.25;;;8.93;36.85
74370;BME280;62805;44.644;10.942;2023-04-06T09:08:08;101564.44;;;9.09;35.57
74370;BME280;62805;44.644;10.942;2023-04-06T09:10:33;101561.28;;;9.05;36.11
74370;BME280;62805;44.644;10.942;2023-04-06T09:13:04;101546.59;;;9.15;35.52
74370;BME280;62805;44.644;10.942;2023-04-06T09:15:29;101559.44;;;9.27;35.28
74370;BME280;62805;44.644;10.942;2023-04-06T09:17:55;101559.44;;;9.27;35.92
74370;BME280;62805;44.644;10.942;2023-04-06T09:20:24;101561.94;;;9.40;36.14
74370;BME280;62805;44.644;10.942;2023-04-06T09:22:54;101559.38;;;9.55;36.36
74370;BME280;62805;44.644;10.942;2023-04-06T09:25:23;101556.00;;;9.53;36.38
74370;BME280;62805;44.644;10.942;2023-04-06T09:28:01;101553.63;;;9.78;35.00
74370;BME280;62805;44.644;10.942;2023-04-06T09:30:27;101536.25;;;9.81;33.66
74370;BME280;62805;44.644;10.942;2023-04-06T09:32:55;101553.63;;;9.78;34.31
74370;BME280;62805;44.644;10.942;2023-04-06T09:35:22;101547.94;;;9.90;34.86
74370;BME280;62805;44.644;10.942;2023-04-06T09:37:51;101544.19;;;9.84;33.75
74370;BME280;62805;44.644;10.942;2023-04-06T09:40:17;101544.19;;;9.84;34.19
74370;BME280;62805;44.644;10.942;2023-04-06T09:42:48;101549.53;;;9.86;34.41
74370;BME280;62805;44.644;10.942;2023-04-06T09:45:19;101541.53;;;10.11;34.57
74370;BME280;62805;44.644;10.942;2023-04-06T09:47:46;101525.03;;;10.15;35.33
